sensor_id;sensor_type;location;lat;lon;timestamp;P1;durP1;ratioP1;P2;durP2;ratioP2
54412;SDS011;41533;51.390;0.074;2022-08-03T00:00:08;2.95;;;1.10;;
54412;SDS011;41533;51.390;0.074;2022-08-03T00:02:38;4.43;;;1.55;;
54412;SDS011;41533;51.390;0.074;2022-08-03T00:05:06;2.22;;;1.27;;
54412;SDS011;41533;51.390;0.074;2022-08-03T00:07:34;4.53;;;1.70;;
54412;SDS011;41533;51.390;0.074;2022-08-03T00:10:01;4.90;;;1.13;;
54412;SDS011;41533;51.390;0.074;2022-08-03T00:12:28;4.93;;;1.10;;
54412;SDS011;41533;51.390;0.074;2022-08-03T00:14:56;4.13;;;1.17;;
54412;SDS011;41533;51.390;0.074;2022-08-03T00:17:23;2.03;;;0.98;;
54412;SDS011;41533;51.390;0.074;2022-08-03T00:19:50;4.68;;;1.35;;
54412;SDS011;41533;51.390;0.074;2022-08-03T00:22:17;5.00;;;1.48;;
54412;SDS011;41533;51.390;0.074;2022-08-03T00:24:44;2.58;;;1.27;;
54412;SDS011;41533;51.390;0.074;2022-08-03T00:27:12;3.20;;;1.58;;
54412;SDS011;41533;51.390;0.074;2022-08-03T00:29:41;4.63;;;1.77;;
54412;SDS011;41533;51.390;0.074;2022-08-03T00:32:23;3.92;;;1.30;;
54412;SDS011;41533;51.390;0.074;2022-08-03T00:34:50;4.95;;;1.25;;
54412;SDS011;41533;51.390;0.074;2022-08-03T00:37:23;8.70;;;1.67;;
54412;SDS011;41533;51.390;0.074;2022-08-03T00:39:50;8.73;;;1.90;;
54412;SDS011;41533;51.390;0.074;2022-08-03T00:42:17;7.53;;;1.38;;
54412;SDS011;41533;51.390;0.074;2022-08-03T00:44:44;4.80;;;1.30;;
54412;SDS011;41533;51.390;0.074;2022-08-03T00:47:12;7.00;;;1.85;;
54412;SDS011;41533;51.390;0.074;2022-08-03T00:49:39;5.20;;;1.45;;
54412;SDS011;41533;51.390;0.074;2022-08-03T00:52:07;2.53;;;1.55;;
54412;SDS011;41533;51.390;0.074;2022-08-03T00:54:38;9.38;;;1.52;;
54412;SDS011;41533;51.390;0.074;2022-08-03T00:57:06;5.57;;;1.38;;
54412;SDS011;41533;51.390;0.074;2022-08-03T00:59:33;5.28;;;1.52;;
54412;SDS011;41533;51.390;0.074;2022-08-03T01:02:01;3.63;;;1.30;;
54412;SDS011;41533;51.390;0.074;2022-08-03T01:04:28;3.10;;;1.58;;
54412;SDS011;41533;51.390;0.074;2022-08-03T01:09:28;4.03;;;1.67;;
54412;SDS011;41533;51.390;0.074;2022-08-03T01:12:00;6.90;;;1.13;;
54412;SDS011;41533;51.390;0.074;2022-08-03T01:14:33;4.32;;;1.42;;
54412;SDS011;41533;51.390;0.074;2022-08-03T01:17:11;5.07;;;1.55;;
54412;SDS011;41533;51.390;0.074;2022-08-03T01:20:13;2.35;;;1.00;;
54412;SDS011;41533;51.390;0.074;2022-08-03T01:25:33;9.00;;;2.00;;
54412;SDS011;41533;51.390;0.074;2022-08-03T01:30:35;2.55;;;1.10;;
54412;SDS011;41533;51.390;0.074;2022-08-03T01:33:05;2.40;;;1.63;;
54412;SDS011;41533;51.390;0.074;2022-08-03T01:35:40;3.53;;;1.13;;
54412;SDS011;41533;51.390;0.074;2022-08-03T01:38:10;4.97;;;1.33;;
54412;SDS011;41533;51.390;0.074;2022-08-03T01:40:38;3.90;;;1.35;;
54412;SDS011;41533;51.390;0.074;2022-08-03T01:43:06;2.35;;;1.35;;
54412;SDS011;41533;51.390;0.074;2022-08-03T01:45:34;10.15;;;2.08;;
54412;SDS011;41533;51.390;0.074;2022-08-03T01:48:02;2.67;;;1.73;;
54412;SDS011;41533;51.390;0.074;2022-08-03T01:50:30;3.85;;;2.03;;
54412;SDS011;41533;51.390;0.074;2022-08-03T01:53:00;5.85;;;2.10;;
54412;SDS011;41533;51.390;0.074;2022-08-03T01:55:28;4.30;;;1.92;;
54412;SDS011;41533;51.390;0.074;2022-08-03T01:57:57;8.77;;;2.55;;
54412;SDS011;41533;51.390;0.074;2022-08-03T02:00:33;6.68;;;2.22;;
54412;SDS011;41533;51.390;0.074;2022-08-03T02:03:01;5.55;;;2.53;;
54412;SDS011;41533;51.390;0.074;2022-08-03T02:05:31;4.07;;;2.17;;
54412;SDS011;41533;51.390;0.074;2022-08-03T02:07:59;5.43;;;2.20;;
54412;SDS011;41533;51.390;0.074;2022-08-03T02:10:28;7.85;;;2.30;;
54412;SDS011;41533;51.390;0.074;2022-08-03T02:13:02;10.38;;;2.70;;
54412;SDS011;41533;51.390;0.074;2022-08-03T02:15:30;7.57;;;2.38;;
54412;SDS011;41533;51.390;0.074;2022-08-03T02:17:59;6.18;;;2.67;;
54412;SDS011;41533;51.390;0.074;2022-08-03T02:20:27;5.55;;;2.40;;
54412;SDS011;41533;51.390;0.074;2022-08-03T02:22:57;5.20;;;2.85;;
54412;SDS011;41533;51.390;0.074;2022-08-03T02:25:25;3.42;;;2.60;;
54412;SDS011;41533;51.390;0.074;2022-08-03T02:27:57;6.75;;;2.20;;
54412;SDS011;41533;51.390;0.074;2022-08-03T02:30:26;6.55;;;3.65;;
54412;SDS011;41533;51.390;0.074;2022-08-03T02:32:55;8.10;;;2.38;;
54412;SDS011;41533;51.390;0.074;2022-08-03T02:35:24;5.25;;;2.80;;
54412;SDS011;41533;51.390;0.074;2022-08-03T02:37:54;4.97;;;2.03;;
54412;SDS011;41533;51.390;0.074;2022-08-03T02:40:22;5.07;;;1.95;;
54412;SDS011;41533;51.390;0.074;2022-08-03T02:42:50;3.45;;;1.98;;
54412;SDS011;41533;51.390;0.074;2022-08-03T02:45:19;5.75;;;2.00;;
54412;SDS011;41533;51.390;0.074;2022-08-03T02:47:46;4.82;;;2.00;;
54412;SDS011;41533;51.390;0.074;2022-08-03T02:50:18;4.82;;;1.80;;
54412;SDS011;41533;51.390;0.074;2022-08-03T02:52:46;3.13;;;2.28;;
54412;SDS011;41533;51.390;0.074;2022-08-03T02:55:14;4.75;;;1.60;;
54412;SDS011;41533;51.390;0.074;2022-08-03T02:57:42;10.27;;;1.92;;
54412;SDS011;41533;51.390;0.074;2022-08-03T03:00:10;9.82;;;1.92;;
54412;SDS011;41533;51.390;0.074;2022-08-03T03:02:38;4.32;;;1.85;;
54412;SDS011;41533;51.390;0.074;2022-08-03T03:05:06;2.22;;;1.30;;
54412;SDS011;41533;51.390;0.074;2022-08-03T03:07:54;3.00;;;1.05;;
54412;SDS011;41533;51.390;0.074;2022-08-03T03:10:21;5.07;;;1.38;;
54412;SDS011;41533;51.390;0.074;2022-08-03T03:12:50;3.20;;;1.63;;
54412;SDS011;41533;51.390;0.074;2022-08-03T03:15:18;4.85;;;1.35;;
54412;SDS011;41533;51.390;0.074;2022-08-03T03:17:46;6.07;;;1.48;;
54412;SDS011;41533;51.390;0.074;2022-08-03T03:20:14;2.22;;;1.02;;
54412;SDS011;41533;51.390;0.074;2022-08-03T03:22:42;7.68;;;1.98;;
54412;SDS011;41533;51.390;0.074;2022-08-03T03:25:11;6.85;;;2.03;;
54412;SDS011;41533;51.390;0.074;2022-08-03T03:27:38;3.75;;;1.27;;
54412;SDS011;41533;51.390;0.074;2022-08-03T03:30:05;5.75;;;1.20;;
54412;SDS011;41533;51.390;0.074;2022-08-03T03:32:33;3.25;;;1.42;;
54412;SDS011;41533;51.390;0.074;2022-08-03T03:35:03;2.13;;;1.42;;
54412;SDS011;41533;51.390;0.074;2022-08-03T03:37:30;2.53;;;1.50;;
54412;SDS011;41533;51.390;0.074;2022-08-03T03:39:57;1.77;;;1.17;;
54412;SDS011;41533;51.390;0.074;2022-08-03T03:42:25;5.78;;;2.05;;
54412;SDS011;41533;51.390;0.074;2022-08-03T03:44:52;6.20;;;1.30;;
54412;SDS011;41533;51.390;0.074;2022-08-03T03:47:19;5.47;;;1.52;;
54412;SDS011;41533;51.390;0.074;2022-08-03T03:49:58;5.80;;;1.90;;
54412;SDS011;41533;51.390;0.074;2022-08-03T03:52:26;1.80;;;1.70;;
54412;SDS011;41533;51.390;0.074;2022-08-03T03:54:53;5.13;;;1.77;;
54412;SDS011;41533;51.390;0.074;2022-08-03T03:57:24;7.78;;;1.70;;
54412;SDS011;41533;51.390;0.074;2022-08-03T03:59:52;3.13;;;1.48;;
54412;SDS011;41533;51.390;0.074;2022-08-03T04:02:19;7.75;;;1.40;;
54412;SDS011;41533;51.390;0.074;2022-08-03T04:04:46;5.40;;;1.55;;
54412;SDS011;41533;51.390;0.074;2022-08-03T04:07:34;4.45;;;1.38;;
54412;SDS011;41533;51.390;0.074;2022-08-03T04:10:22;7.47;;;1.35;;
54412;SDS011;41533;51.390;0.074;2022-08-03T04:13:10;3.03;;;1.55;;
54412;SDS011;41533;51.390;0.074;2022-08-03T04:15:38;6.95;;;2.33;;
54412;SDS011;41533;51.390;0.074;2022-08-03T04:18:06;5.00;;;1.70;;
54412;SDS011;41533;51.390;0.074;2022-08-03T04:20:34;7.47;;;1.83;;
54412;SDS011;41533;51.390;0.074;2022-08-03T04:23:03;5.18;;;1.58;;
54412;SDS011;41533;51.390;0.074;2022-08-03T04:25:33;7.15;;;1.90;;
54412;SDS011;41533;51.390;0.074;2022-08-03T04:28:02;4.15;;;2.22;;
54412;SDS011;41533;51.390;0.074;2022-08-03T04:30:50;6.22;;;1.85;;
54412;SDS011;41533;51.390;0.074;2022-08-03T04:33:19;6.97;;;2.42;;
54412;SDS011;41533;51.390;0.074;2022-08-03T04:35:47;6.50;;;1.70;;
54412;SDS011;41533;51.390;0.074;2022-08-03T04:38:25;4.25;;;1.88;;
54412;SDS011;41533;51.390;0.074;2022-08-03T04:40:53;3.92;;;2.30;;
54412;SDS011;41533;51.390;0.074;2022-08-03T04:43:21;6.10;;;2.28;;
54412;SDS011;41533;51.390;0.074;2022-08-03T04:45:48;3.63;;;2.38;;
54412;SDS011;41533;51.390;0.074;2022-08-03T04:48:17;6.03;;;2.20;;
54412;SDS011;41533;51.390;0.074;2022-08-03T04:50:46;4.03;;;2.28;;
54412;SDS011;41533;51.390;0.074;2022-08-03T04:53:13;4.93;;;2.45;;
54412;SDS011;41533;51.390;0.074;2022-08-03T04:55:42;3.47;;;2.08;;
54412;SDS011;41533;51.390;0.074;2022-08-03T04:58:09;5.55;;;3.03;;
54412;SDS011;41533;51.390;0.074;2022-08-03T05:00:36;6.00;;;2.17;;
54412;SDS011;41533;51.390;0.074;2022-08-03T05:03:04;2.83;;;2.22;;
54412;SDS011;41533;51.390;0.074;2022-08-03T05:05:45;4.60;;;2.65;;
54412;SDS011;41533;51.390;0.074;2022-08-03T05:08:14;4.47;;;2.50;;
54412;SDS011;41533;51.390;0.074;2022-08-03T05:10:42;5.97;;;2.55;;
54412;SDS011;41533;51.390;0.074;2022-08-03T05:13:09;4.13;;;2.70;;
54412;SDS011;41533;51.390;0.074;2022-08-03T05:15:39;3.05;;;2.42;;
54412;SDS011;41533;51.390;0.074;2022-08-03T05:18:09;6.82;;;3.08;;
54412;SDS011;41533;51.390;0.074;2022-08-03T05:20:40;3.55;;;2.45;;
54412;SDS011;41533;51.390;0.074;2022-08-03T05:23:07;4.97;;;2.35;;
54412;SDS011;41533;51.390;0.074;2022-08-03T05:25:34;6.15;;;2.38;;
54412;SDS011;41533;51.390;0.074;2022-08-03T05:28:01;5.97;;;3.17;;
54412;SDS011;41533;51.390;0.074;2022-08-03T05:30:29;9.57;;;2.70;;
54412;SDS011;41533;51.390;0.074;2022-08-03T05:33:01;5.95;;;2.95;;
54412;SDS011;41533;51.390;0.074;2022-08-03T05:35:28;5.68;;;2.78;;
54412;SDS011;41533;51.390;0.074;2022-08-03T05:38:16;8.20;;;2.78;;
54412;SDS011;41533;51.390;0.074;2022-08-03T05:40:46;3.55;;;2.28;;
54412;SDS011;41533;51.390;0.074;2022-08-03T05:43:23;4.80;;;1.92;;
54412;SDS011;41533;51.390;0.074;2022-08-03T05:45:50;4.50;;;2.63;;
54412;SDS011;41533;51.390;0.074;2022-08-03T05:48:27;5.40;;;2.95;;
54412;SDS011;41533;51.390;0.074;2022-08-03T05:50:55;7.70;;;2.65;;
54412;SDS011;41533;51.390;0.074;2022-08-03T05:53:22;3.25;;;2.13;;
54412;SDS011;41533;51.390;0.074;2022-08-03T05:55:49;7.03;;;2.22;;
54412;SDS011;41533;51.390;0.074;2022-08-03T05:58:21;8.05;;;3.63;;
54412;SDS011;41533;51.390;0.074;2022-08-03T06:00:48;7.35;;;3.58;;
54412;SDS011;41533;51.390;0.074;2022-08-03T06:03:16;5.82;;;2.92;;
54412;SDS011;41533;51.390;0.074;2022-08-03T06:05:43;6.43;;;2.58;;
54412;SDS011;41533;51.390;0.074;2022-08-03T06:08:24;9.13;;;3.28;;
54412;SDS011;41533;51.390;0.074;2022-08-03T06:10:51;7.38;;;2.38;;
54412;SDS011;41533;51.390;0.074;2022-08-03T06:13:18;7.95;;;3.45;;
54412;SDS011;41533;51.390;0.074;2022-08-03T06:15:45;12.57;;;2.70;;
54412;SDS011;41533;51.390;0.074;2022-08-03T06:18:13;4.90;;;2.90;;
54412;SDS011;41533;51.390;0.074;2022-08-03T06:20:40;3.30;;;2.42;;
54412;SDS011;41533;51.390;0.074;2022-08-03T06:23:07;9.20;;;2.42;;
54412;SDS011;41533;51.390;0.074;2022-08-03T06:25:38;7.05;;;2.60;;
54412;SDS011;41533;51.390;0.074;2022-08-03T06:28:05;3.88;;;2.20;;
54412;SDS011;41533;51.390;0.074;2022-08-03T06:30:33;6.05;;;2.50;;
54412;SDS011;41533;51.390;0.074;2022-08-03T06:33:00;3.25;;;2.20;;
54412;SDS011;41533;51.390;0.074;2022-08-03T06:35:28;2.28;;;2.00;;
54412;SDS011;41533;51.390;0.074;2022-08-03T06:37:55;3.72;;;2.33;;
54412;SDS011;41533;51.390;0.074;2022-08-03T06:40:23;7.50;;;2.25;;
54412;SDS011;41533;51.390;0.074;2022-08-03T06:42:57;7.20;;;2.35;;
54412;SDS011;41533;51.390;0.074;2022-08-03T06:45:25;5.53;;;1.75;;
54412;SDS011;41533;51.390;0.074;2022-08-03T06:48:05;6.35;;;1.55;;
54412;SDS011;41533;51.390;0.074;2022-08-03T06:50:33;5.85;;;2.00;;
54412;SDS011;41533;51.390;0.074;2022-08-03T06:53:01;5.78;;;2.58;;
54412;SDS011;41533;51.390;0.074;2022-08-03T06:55:28;4.40;;;1.85;;
54412;SDS011;41533;51.390;0.074;2022-08-03T06:57:56;3.40;;;1.50;;
54412;SDS011;41533;51.390;0.074;2022-08-03T07:00:26;2.50;;;1.40;;
54412;SDS011;41533;51.390;0.074;2022-08-03T07:02:54;2.67;;;1.67;;
54412;SDS011;41533;51.390;0.074;2022-08-03T07:05:24;5.28;;;1.92;;
54412;SDS011;41533;51.390;0.074;2022-08-03T07:07:54;3.20;;;1.80;;
54412;SDS011;41533;51.390;0.074;2022-08-03T07:10:22;3.33;;;1.70;;
54412;SDS011;41533;51.390;0.074;2022-08-03T07:12:49;4.38;;;1.95;;
54412;SDS011;41533;51.390;0.074;2022-08-03T07:15:18;2.20;;;1.55;;
54412;SDS011;41533;51.390;0.074;2022-08-03T07:18:04;3.67;;;1.27;;
54412;SDS011;41533;51.390;0.074;2022-08-03T07:20:32;3.58;;;1.13;;
54412;SDS011;41533;51.390;0.074;2022-08-03T07:22:59;2.50;;;1.52;;
54412;SDS011;41533;51.390;0.074;2022-08-03T07:25:27;3.42;;;1.33;;
54412;SDS011;41533;51.390;0.074;2022-08-03T07:27:54;1.90;;;1.10;;
54412;SDS011;41533;51.390;0.074;2022-08-03T07:30:21;3.15;;;1.40;;
54412;SDS011;41533;51.390;0.074;2022-08-03T07:32:48;1.88;;;1.05;;
54412;SDS011;41533;51.390;0.074;2022-08-03T07:35:16;6.05;;;1.38;;
54412;SDS011;41533;51.390;0.074;2022-08-03T07:37:50;2.38;;;1.13;;
54412;SDS011;41533;51.390;0.074;2022-08-03T07:40:20;2.85;;;1.27;;
54412;SDS011;41533;51.390;0.074;2022-08-03T07:42:48;1.95;;;1.00;;
54412;SDS011;41533;51.390;0.074;2022-08-03T07:45:18;4.07;;;1.63;;
54412;SDS011;41533;51.390;0.074;2022-08-03T07:47:45;2.97;;;1.40;;
54412;SDS011;41533;51.390;0.074;2022-08-03T07:50:19;1.60;;;1.20;;
54412;SDS011;41533;51.390;0.074;2022-08-03T07:52:47;1.33;;;1.08;;
54412;SDS011;41533;51.390;0.074;2022-08-03T07:55:14;2.38;;;1.17;;
54412;SDS011;41533;51.390;0.074;2022-08-03T07:57:42;1.10;;;0.85;;
54412;SDS011;41533;51.390;0.074;2022-08-03T08:00:13;1.30;;;1.13;;
54412;SDS011;41533;51.390;0.074;2022-08-03T08:02:41;3.35;;;1.48;;
54412;SDS011;41533;51.390;0.074;2022-08-03T08:05:09;0.98;;;0.85;;
54412;SDS011;41533;51.390;0.074;2022-08-03T08:07:37;1.88;;;1.13;;
54412;SDS011;41533;51.390;0.074;2022-08-03T08:10:05;1.45;;;0.80;;
54412;SDS011;41533;51.390;0.074;2022-08-03T08:12:32;1.33;;;0.85;;
54412;SDS011;41533;51.390;0.074;2022-08-03T08:15:00;1.20;;;1.10;;
54412;SDS011;41533;51.390;0.074;2022-08-03T08:17:27;1.92;;;0.90;;
54412;SDS011;41533;51.390;0.074;2022-08-03T08:19:54;0.93;;;0.88;;
54412;SDS011;41533;51.390;0.074;2022-08-03T08:22:22;2.25;;;0.80;;
54412;SDS011;41533;51.390;0.074;2022-08-03T08:24:49;1.20;;;0.88;;
54412;SDS011;41533;51.390;0.074;2022-08-03T08:27:16;2.22;;;0.98;;
54412;SDS011;41533;51.390;0.074;2022-08-03T08:29:43;2.05;;;0.90;;
54412;SDS011;41533;51.390;0.074;2022-08-03T08:32:12;2.78;;;0.88;;
54412;SDS011;41533;51.390;0.074;2022-08-03T08:34:42;1.02;;;0.80;;
54412;SDS011;41533;51.390;0.074;2022-08-03T08:37:09;1.20;;;0.85;;
54412;SDS011;41533;51.390;0.074;2022-08-03T08:39:37;2.10;;;0.70;;
54412;SDS011;41533;51.390;0.074;2022-08-03T08:42:04;1.63;;;0.60;;
54412;SDS011;41533;51.390;0.074;2022-08-03T08:44:32;0.95;;;0.77;;
54412;SDS011;41533;51.390;0.074;2022-08-03T08:46:59;0.98;;;0.65;;
54412;SDS011;41533;51.390;0.074;2022-08-03T08:49:28;1.00;;;0.77;;
54412;SDS011;41533;51.390;0.074;2022-08-03T08:51:55;1.13;;;0.70;;
54412;SDS011;41533;51.390;0.074;2022-08-03T08:54:25;1.52;;;0.80;;
54412;SDS011;41533;51.390;0.074;2022-08-03T08:56:53;1.73;;;1.10;;
54412;SDS011;41533;51.390;0.074;2022-08-03T08:59:22;0.85;;;0.60;;
54412;SDS011;41533;51.390;0.074;2022-08-03T09:01:50;0.85;;;0.73;;
54412;SDS011;41533;51.390;0.074;2022-08-03T09:04:17;1.15;;;0.80;;
54412;SDS011;41533;51.390;0.074;2022-08-03T09:06:44;0.75;;;0.60;;
54412;SDS011;41533;51.390;0.074;2022-08-03T09:09:30;0.40;;;0.40;;
54412;SDS011;41533;51.390;0.074;2022-08-03T09:12:17;1.50;;;0.80;;
54412;SDS011;41533;51.390;0.074;2022-08-03T09:17:54;0.82;;;0.70;;
54412;SDS011;41533;51.390;0.074;2022-08-03T09:20:23;2.33;;;0.82;;
54412;SDS011;41533;51.390;0.074;2022-08-03T09:25:21;0.88;;;0.80;;
54412;SDS011;41533;51.390;0.074;2022-08-03T09:27:52;0.30;;;0.30;;
54412;SDS011;41533;51.390;0.074;2022-08-03T09:30:19;0.65;;;0.43;;
54412;SDS011;41533;51.390;0.074;2022-08-03T09:33:01;0.63;;;0.52;;
54412;SDS011;41533;51.390;0.074;2022-08-03T09:35:28;0.60;;;0.60;;
54412;SDS011;41533;51.390;0.074;2022-08-03T09:40:44;1.13;;;0.77;;
54412;SDS011;41533;51.390;0.074;2022-08-03T09:43:12;1.13;;;0.70;;
54412;SDS011;41533;51.390;0.074;2022-08-03T09:45:39;0.80;;;0.80;;
54412;SDS011;41533;51.390;0.074;2022-08-03T09:53:23;0.98;;;0.73;;
54412;SDS011;41533;51.390;0.074;2022-08-03T09:55:54;1.77;;;0.73;;
54412;SDS011;41533;51.390;0.074;2022-08-03T09:58:45;0.60;;;0.60;;
54412;SDS011;41533;51.390;0.074;2022-08-03T10:01:13;1.75;;;1.17;;
54412;SDS011;41533;51.390;0.074;2022-08-03T10:03:56;3.53;;;0.80;;
54412;SDS011;41533;51.390;0.074;2022-08-03T10:06:30;7.13;;;0.85;;
54412;SDS011;41533;51.390;0.074;2022-08-03T10:09:05;1.15;;;0.90;;
54412;SDS011;41533;51.390;0.074;2022-08-03T10:11:33;1.20;;;0.93;;
54412;SDS011;41533;51.390;0.074;2022-08-03T10:14:08;2.08;;;0.60;;
54412;SDS011;41533;51.390;0.074;2022-08-03T10:16:38;3.85;;;0.98;;
54412;SDS011;41533;51.390;0.074;2022-08-03T10:19:06;1.65;;;0.95;;
54412;SDS011;41533;51.390;0.074;2022-08-03T10:21:34;0.70;;;0.70;;
54412;SDS011;41533;51.390;0.074;2022-08-03T10:24:03;0.90;;;0.90;;
54412;SDS011;41533;51.390;0.074;2022-08-03T10:26:34;0.80;;;0.70;;
54412;SDS011;41533;51.390;0.074;2022-08-03T10:29:02;0.70;;;0.68;;
54412;SDS011;41533;51.390;0.074;2022-08-03T10:31:32;0.65;;;0.60;;
54412;SDS011;41533;51.390;0.074;2022-08-03T10:34:00;0.82;;;0.82;;
54412;SDS011;41533;51.390;0.074;2022-08-03T10:36:29;3.53;;;0.77;;
54412;SDS011;41533;51.390;0.074;2022-08-03T10:38:57;4.07;;;0.70;;
54412;SDS011;41533;51.390;0.074;2022-08-03T10:41:25;1.00;;;0.82;;
54412;SDS011;41533;51.390;0.074;2022-08-03T10:44:07;1.35;;;0.60;;
54412;SDS011;41533;51.390;0.074;2022-08-03T10:46:36;1.38;;;0.85;;
54412;SDS011;41533;51.390;0.074;2022-08-03T10:49:13;1.55;;;1.05;;
54412;SDS011;41533;51.390;0.074;2022-08-03T10:51:44;1.05;;;0.63;;
54412;SDS011;41533;51.390;0.074;2022-08-03T10:56:57;4.82;;;1.00;;
54412;SDS011;41533;51.390;0.074;2022-08-03T11:02:11;1.45;;;0.70;;
54412;SDS011;41533;51.390;0.074;2022-08-03T11:04:40;2.50;;;0.82;;
54412;SDS011;41533;51.390;0.074;2022-08-03T11:09:49;1.63;;;0.65;;
54412;SDS011;41533;51.390;0.074;2022-08-03T11:12:26;3.33;;;0.90;;
54412;SDS011;41533;51.390;0.074;2022-08-03T11:14:58;5.55;;;0.80;;
54412;SDS011;41533;51.390;0.074;2022-08-03T11:17:26;1.08;;;0.82;;
54412;SDS011;41533;51.390;0.074;2022-08-03T11:19:53;1.45;;;0.70;;
54412;SDS011;41533;51.390;0.074;2022-08-03T11:22:24;0.80;;;0.80;;
54412;SDS011;41533;51.390;0.074;2022-08-03T11:27:23;0.68;;;0.68;;
54412;SDS011;41533;51.390;0.074;2022-08-03T11:35:14;1.50;;;0.93;;
54412;SDS011;41533;51.390;0.074;2022-08-03T11:38:03;2.38;;;1.08;;
54412;SDS011;41533;51.390;0.074;2022-08-03T11:43:05;4.05;;;0.80;;
54412;SDS011;41533;51.390;0.074;2022-08-03T11:45:35;4.88;;;0.70;;
54412;SDS011;41533;51.390;0.074;2022-08-03T11:48:13;1.38;;;0.80;;
54412;SDS011;41533;51.390;0.074;2022-08-03T11:50:41;2.05;;;0.88;;
54412;SDS011;41533;51.390;0.074;2022-08-03T11:53:13;3.70;;;1.08;;
54412;SDS011;41533;51.390;0.074;2022-08-03T11:55:40;0.90;;;0.60;;
54412;SDS011;41533;51.390;0.074;2022-08-03T11:58:17;1.05;;;0.50;;
54412;SDS011;41533;51.390;0.074;2022-08-03T12:01:05;1.17;;;0.85;;
54412;SDS011;41533;51.390;0.074;2022-08-03T12:03:33;4.63;;;1.10;;
54412;SDS011;41533;51.390;0.074;2022-08-03T12:06:01;3.42;;;1.27;;
54412;SDS011;41533;51.390;0.074;2022-08-03T12:08:31;1.13;;;0.77;;
54412;SDS011;41533;51.390;0.074;2022-08-03T12:11:00;1.40;;;1.00;;
54412;SDS011;41533;51.390;0.074;2022-08-03T12:16:23;1.45;;;0.95;;
54412;SDS011;41533;51.390;0.074;2022-08-03T12:19:09;0.60;;;0.60;;
54412;SDS011;41533;51.390;0.074;2022-08-03T12:21:44;2.88;;;0.77;;
54412;SDS011;41533;51.390;0.074;2022-08-03T12:24:22;1.67;;;0.80;;
54412;SDS011;41533;51.390;0.074;2022-08-03T12:26:50;2.28;;;0.60;;
54412;SDS011;41533;51.390;0.074;2022-08-03T12:29:24;1.77;;;0.60;;
54412;SDS011;41533;51.390;0.074;2022-08-03T12:31:52;3.78;;;0.73;;
54412;SDS011;41533;51.390;0.074;2022-08-03T12:34:19;2.03;;;1.40;;
54412;SDS011;41533;51.390;0.074;2022-08-03T12:36:53;1.02;;;0.70;;
54412;SDS011;41533;51.390;0.074;2022-08-03T12:39:22;1.05;;;0.65;;
54412;SDS011;41533;51.390;0.074;2022-08-03T12:41:53;3.42;;;0.70;;
54412;SDS011;41533;51.390;0.074;2022-08-03T12:46:57;4.22;;;0.80;;
54412;SDS011;41533;51.390;0.074;2022-08-03T12:49:25;3.28;;;0.65;;
54412;SDS011;41533;51.390;0.074;2022-08-03T12:54:20;3.17;;;0.80;;
54412;SDS011;41533;51.390;0.074;2022-08-03T12:57:01;1.52;;;0.70;;
54412;SDS011;41533;51.390;0.074;2022-08-03T12:59:30;2.03;;;1.10;;
54412;SDS011;41533;51.390;0.074;2022-08-03T13:01:58;1.23;;;0.88;;
54412;SDS011;41533;51.390;0.074;2022-08-03T13:07:06;1.80;;;1.10;;
54412;SDS011;41533;51.390;0.074;2022-08-03T13:10:00;3.60;;;0.60;;
54412;SDS011;41533;51.390;0.074;2022-08-03T13:12:29;0.90;;;0.57;;
54412;SDS011;41533;51.390;0.074;2022-08-03T13:14:58;2.90;;;0.60;;
54412;SDS011;41533;51.390;0.074;2022-08-03T13:17:25;3.25;;;1.10;;
54412;SDS011;41533;51.390;0.074;2022-08-03T13:19:53;1.02;;;0.80;;
54412;SDS011;41533;51.390;0.074;2022-08-03T13:22:21;0.98;;;0.50;;
54412;SDS011;41533;51.390;0.074;2022-08-03T13:24:55;3.83;;;0.52;;
54412;SDS011;41533;51.390;0.074;2022-08-03T13:27:23;1.95;;;0.50;;
54412;SDS011;41533;51.390;0.074;2022-08-03T13:30:11;7.43;;;0.57;;
54412;SDS011;41533;51.390;0.074;2022-08-03T13:32:38;1.08;;;0.95;;
54412;SDS011;41533;51.390;0.074;2022-08-03T13:35:06;2.00;;;0.88;;
54412;SDS011;41533;51.390;0.074;2022-08-03T13:37:34;2.78;;;0.88;;
54412;SDS011;41533;51.390;0.074;2022-08-03T13:40:02;0.65;;;0.50;;
54412;SDS011;41533;51.390;0.074;2022-08-03T13:42:31;0.98;;;0.60;;
54412;SDS011;41533;51.390;0.074;2022-08-03T13:44:59;1.50;;;0.63;;
54412;SDS011;41533;51.390;0.074;2022-08-03T13:47:26;2.53;;;0.73;;
54412;SDS011;41533;51.390;0.074;2022-08-03T13:49:53;2.60;;;0.35;;
54412;SDS011;41533;51.390;0.074;2022-08-03T13:52:33;1.40;;;0.75;;
54412;SDS011;41533;51.390;0.074;2022-08-03T13:55:01;1.42;;;0.80;;
54412;SDS011;41533;51.390;0.074;2022-08-03T13:57:28;1.92;;;0.68;;
54412;SDS011;41533;51.390;0.074;2022-08-03T14:00:16;0.68;;;0.63;;
54412;SDS011;41533;51.390;0.074;2022-08-03T14:02:54;1.52;;;0.50;;
54412;SDS011;41533;51.390;0.074;2022-08-03T14:05:29;0.90;;;0.50;;
54412;SDS011;41533;51.390;0.074;2022-08-03T14:07:58;1.30;;;0.55;;
54412;SDS011;41533;51.390;0.074;2022-08-03T14:10:29;1.08;;;0.80;;
54412;SDS011;41533;51.390;0.074;2022-08-03T14:12:57;2.25;;;0.60;;
54412;SDS011;41533;51.390;0.074;2022-08-03T14:15:26;4.45;;;0.77;;
54412;SDS011;41533;51.390;0.074;2022-08-03T14:17:55;1.35;;;0.60;;
54412;SDS011;41533;51.390;0.074;2022-08-03T14:20:25;1.52;;;0.63;;
54412;SDS011;41533;51.390;0.074;2022-08-03T14:22:59;2.50;;;0.68;;
54412;SDS011;41533;51.390;0.074;2022-08-03T14:25:27;1.42;;;0.90;;
54412;SDS011;41533;51.390;0.074;2022-08-03T14:27:54;2.85;;;0.80;;
54412;SDS011;41533;51.390;0.074;2022-08-03T14:30:21;5.18;;;0.77;;
54412;SDS011;41533;51.390;0.074;2022-08-03T14:32:49;3.13;;;0.75;;
54412;SDS011;41533;51.390;0.074;2022-08-03T14:35:16;0.73;;;0.60;;
54412;SDS011;41533;51.390;0.074;2022-08-03T14:37:43;4.15;;;0.75;;
54412;SDS011;41533;51.390;0.074;2022-08-03T14:40:10;2.28;;;0.88;;
54412;SDS011;41533;51.390;0.074;2022-08-03T14:42:38;4.10;;;1.10;;
54412;SDS011;41533;51.390;0.074;2022-08-03T14:45:05;2.60;;;0.93;;
54412;SDS011;41533;51.390;0.074;2022-08-03T14:47:35;5.55;;;0.82;;
54412;SDS011;41533;51.390;0.074;2022-08-03T14:50:22;1.33;;;0.82;;
54412;SDS011;41533;51.390;0.074;2022-08-03T14:53:05;2.72;;;0.75;;
54412;SDS011;41533;51.390;0.074;2022-08-03T14:55:32;2.55;;;1.30;;
54412;SDS011;41533;51.390;0.074;2022-08-03T14:58:04;2.13;;;0.63;;
54412;SDS011;41533;51.390;0.074;2022-08-03T15:00:35;2.80;;;0.70;;
54412;SDS011;41533;51.390;0.074;2022-08-03T15:03:03;1.77;;;0.50;;
54412;SDS011;41533;51.390;0.074;2022-08-03T15:05:31;2.63;;;0.70;;
54412;SDS011;41533;51.390;0.074;2022-08-03T15:07:58;2.90;;;0.80;;
54412;SDS011;41533;51.390;0.074;2022-08-03T15:10:25;2.53;;;1.10;;
54412;SDS011;41533;51.390;0.074;2022-08-03T15:12:53;7.50;;;0.93;;
54412;SDS011;41533;51.390;0.074;2022-08-03T15:15:21;2.25;;;0.70;;
54412;SDS011;41533;51.390;0.074;2022-08-03T15:17:48;1.27;;;0.52;;
54412;SDS011;41533;51.390;0.074;2022-08-03T15:20:26;2.83;;;0.70;;
54412;SDS011;41533;51.390;0.074;2022-08-03T15:23:08;1.48;;;0.52;;
54412;SDS011;41533;51.390;0.074;2022-08-03T15:25:36;1.40;;;0.60;;
54412;SDS011;41533;51.390;0.074;2022-08-03T15:28:23;1.50;;;0.70;;
54412;SDS011;41533;51.390;0.074;2022-08-03T15:30:50;1.05;;;0.68;;
54412;SDS011;41533;51.390;0.074;2022-08-03T15:33:18;2.00;;;0.70;;
54412;SDS011;41533;51.390;0.074;2022-08-03T15:35:45;0.75;;;0.68;;
54412;SDS011;41533;51.390;0.074;2022-08-03T15:38:13;1.85;;;0.85;;
54412;SDS011;41533;51.390;0.074;2022-08-03T15:40:41;1.02;;;0.60;;
54412;SDS011;41533;51.390;0.074;2022-08-03T15:43:08;3.10;;;0.93;;
54412;SDS011;41533;51.390;0.074;2022-08-03T15:45:36;3.90;;;0.85;;
54412;SDS011;41533;51.390;0.074;2022-08-03T15:48:04;3.55;;;1.15;;
54412;SDS011;41533;51.390;0.074;2022-08-03T15:50:31;1.27;;;1.17;;
54412;SDS011;41533;51.390;0.074;2022-08-03T15:52:58;1.42;;;0.57;;
54412;SDS011;41533;51.390;0.074;2022-08-03T15:55:26;8.15;;;0.57;;